Weather reports worldwide

Advertisment
Embrun, France (7591): temperature & dewpoint: 13.03.2019 09:00:00 - 19.03.2019 09:00:00 (CET)Embrun, France (7591): temperature 5cm: 13.03.2019 09:00:00 - 19.03.2019 09:00:00 (CET)Embrun, France (7591): temperature -20cm & temperature -100cm: 13.03.2019 09:00:00 - 19.03.2019 09:00:00 (CET)Embrun, France (7591): wind speed & gusts: 13.03.2019 09:00:00 - 19.03.2019 09:00:00 (CET)Embrun, France (7591): wind direction: 13.03.2019 09:00:00 - 19.03.2019 09:00:00 (CET)Embrun, France (7591): visibility: 13.03.2019 09:00:00 - 19.03.2019 09:00:00 (CET)Embrun, France (7591): sunshine duration: 13.03.2019 09:00:00 - 19.03.2019 09:00:00 (CET)Embrun, France (7591): precipitation: 13.03.2019 09:00:00 - 19.03.2019 09:00:00 (CET)
Date & Time tt [°C] td [°C] tt 5cm [°C] tt -20cm [°C] tt -100cm [°C] ff [km/h] ff [kn] fx [km/h] fx [kn] dd vv [km] sd [min] rr [mm]
19.03.2019 09:00:00 4,3 -9,8 6,9 6,8 6,6 12 7 31 17 E 20 60 0,0
19.03.2019 08:00:00 2,6 -9,7 -1,5 6,9 6,7 13 7 32 17 NNE 20 28 0,0
19.03.2019 07:00:00 0,8 -10,1 -0,9 6,9 6,6 16 9 24 13 NNE 20 0 0,0
19.03.2019 06:00:00 2,0 -10,2 -0,1 7,0 6,7 20 11 30 16 NNE 20 0 0,0
19.03.2019 05:00:00 2,5 -9,8 1,0 7,1 6,7 13 7 36 20 NE 20 0 0,0
19.03.2019 04:00:00 2,3 -9,6 0,4 7,1 6,7 18 10 33 18 NNE 20 0 0,0
19.03.2019 03:00:00 2,4 -9,9 0,2 7,2 6,7 15 8 26 14 NNE 20 0 0,0
19.03.2019 02:00:00 3,6 -10,1 0,3 7,2 6,7 14 8 24 13 N 20 0 0,0
19.03.2019 01:00:00 3,0 -10,0 -0,7 7,2 6,6 10 6 25 13 NNE 20 0 0,0
19.03.2019 00:00:00 2,4 -10,2 -1,2 7,3 6,7 3 2 9 5 E 20 0 0,0
18.03.2019 23:00:00 3,2 -10,1 -0,5 7,3 6,6 4 2 27 15 ESE 20 0 0,0
18.03.2019 22:00:00 5,6 -11,1 3,8 7,2 6,6 22 12 49 26 NNE 20 0 0,0
18.03.2019 21:00:00 6,0 -11,6 4,5 7,2 6,6 24 13 52 28 NNE 20 0 0,0
18.03.2019 20:00:00 6,2 -12,4 4,0 7,2 6,6 21 11 42 23 NE 20 0 0,0
18.03.2019 19:00:00 6,7 -12,5 4,8 7,1 6,6 23 12 49 26 NE 20 4 0,0
18.03.2019 18:00:00 8,1 -13,0 6,5 7,1 6,6 22 12 45 24 NNE 20 60 0,0
18.03.2019 17:00:00 9,7 -18,4 12,6 7,1 6,6 24 13 51 28 NNE 20 60 0,0
18.03.2019 16:00:00 10,4 -17,9 16,3 7,0 6,6 22 12 45 24 NNE 20 60 0,0
18.03.2019 15:00:00 10,3 -16,1 16,6 7,0 6,6 22 12 48 26 NNE 20 60 0,0
18.03.2019 14:00:00 9,6 -16,7 14,4 7,0 6,5 28 15 50 27 N 20 51 0,0
18.03.2019 13:00:00 9,9 -14,8 16,0 7,1 6,6 23 12 61 33 N 20 60 0,0
18.03.2019 12:00:00 8,9 -14,9 15,5 7,0 6,5 31 17 61 33 NNE - 60 0,0
18.03.2019 11:00:00 8,4 -13,9 11,2 7,1 6,5 29 16 52 28 NE - 58 0,0
18.03.2019 10:00:00 5,4 -3,2 6,0 7,2 6,5 12 6 21 11 SSW - 35 0,0
18.03.2019 09:00:00 4,3 -2,8 7,1 7,3 6,5 3 2 9 5 E - 60 0,0
18.03.2019 08:00:00 1,0 -3,1 -3,2 7,4 6,5 0 0 5 3 N - 19 0,0
18.03.2019 07:00:00 -0,6 -4,1 -4,1 7,4 6,5 0 0 8 4 N - 0 0,0
18.03.2019 06:00:00 -0,9 -4,4 -4,7 7,5 6,5 4 2 8 4 NE - 0 0,0
18.03.2019 05:00:00 -0,7 -4,2 -4,5 7,5 6,5 2 1 5 3 N - 0 0,0
18.03.2019 04:00:00 -0,1 -3,8 -3,3 7,5 6,5 2 1 5 3 W - 0 0,0
18.03.2019 03:00:00 1,3 -3,8 -2,4 7,6 6,5 3 1 8 5 N - 0 0,0
18.03.2019 02:00:00 2,1 -3,8 -1,5 7,6 6,5 4 2 9 5 N - 0 0,0
18.03.2019 01:00:00 4,1 -3,7 2,1 7,6 6,5 5 3 17 9 SSW - 0 0,0
18.03.2019 00:00:00 4,9 -3,4 3,8 7,6 6,5 9 5 31 17 SW - 0 0,0
17.03.2019 23:00:00 5,7 -3,1 4,9 7,6 6,5 18 10 40 22 SSW - 0 0,0
17.03.2019 22:00:00 6,7 -2,2 6,2 7,5 6,5 21 11 46 25 WSW - 0 0,0
17.03.2019 21:00:00 7,9 -0,1 7,6 7,4 6,5 24 13 49 26 SSW - 0 0,0
17.03.2019 20:00:00 11,6 0,9 11,0 7,4 6,5 20 11 39 21 SW - 0 0,0
17.03.2019 19:00:00 12,9 -0,7 12,1 7,3 6,5 20 11 46 25 SW - 0 0,0
17.03.2019 18:00:00 14,3 1,2 13,6 7,2 6,5 23 13 47 26 SW - 0 0,0
17.03.2019 17:00:00 15,5 0,9 15,4 7,1 6,4 22 12 42 23 SW - 1 0,0
17.03.2019 16:00:00 16,8 -0,9 16,8 7,0 6,5 22 12 43 23 SW - 44 0,0
17.03.2019 15:00:00 18,7 -3,5 23,4 7,0 6,5 18 10 38 21 SW - 60 0,0
17.03.2019 14:00:00 17,8 -0,5 22,3 6,9 6,4 24 13 56 30 SSW - 60 0,0
17.03.2019 13:00:00 17,0 -1,7 21,4 6,9 6,4 25 14 51 27 SW - 60 0,0
17.03.2019 12:00:00 16,3 -1,8 22,0 6,9 6,4 16 9 34 18 S - 60 0,0
17.03.2019 11:00:00 13,3 -2,7 19,2 7,0 6,4 10 6 19 11 SSW - 60 0,0
17.03.2019 10:00:00 11,1 -4,2 15,4 7,0 6,4 13 7 29 16 NNE - 60 0,0
17.03.2019 09:00:00 7,4 -3,5 9,2 7,1 6,4 16 8 29 16 NE - 60 0,0
17.03.2019 08:00:00 5,3 -3,8 1,1 7,2 6,4 13 7 27 15 NE - 27 0,0
17.03.2019 07:00:00 3,3 -4,2 0,7 7,2 6,4 17 9 29 15 NE - 0 0,0
17.03.2019 06:00:00 3,8 -4,2 0,1 7,2 6,4 16 9 27 14 NNE - 0 0,0
17.03.2019 05:00:00 3,2 -3,8 0,7 7,3 6,4 12 7 22 12 NNE - 0 0,0
17.03.2019 04:00:00 3,3 -3,7 0,0 7,3 6,4 8 5 14 8 NE - 0 0,0
17.03.2019 03:00:00 4,1 -3,4 0,9 7,4 6,4 5 3 18 10 NE - 0 0,0
17.03.2019 02:00:00 5,3 -3,3 2,8 7,4 6,4 14 7 21 12 NNE - 0 0,0
17.03.2019 01:00:00 6,0 -2,9 3,1 7,4 6,4 10 6 18 10 NE - 0 0,0
17.03.2019 00:00:00 6,7 -2,7 3,3 7,4 6,4 9 5 14 8 NE - 0 0,0
16.03.2019 23:00:00 8,3 -2,7 4,3 7,3 6,4 5 3 16 9 NNE - 0 0,0
16.03.2019 22:00:00 9,1 -1,9 5,0 7,2 6,3 7 4 14 8 N - 0 0,0
16.03.2019 21:00:00 10,7 -2,7 6,5 7,2 6,4 6 3 14 8 N - 0 0,0
16.03.2019 20:00:00 12,6 -2,5 6,8 7,1 6,3 5 3 9 5 N - 0 0,0
16.03.2019 19:00:00 14,4 -2,5 9,5 7,0 6,4 3 2 12 6 WNW - 1 0,0
16.03.2019 18:00:00 19,0 -1,5 17,1 6,8 6,3 8 5 29 15 SSW - 55 0,0
16.03.2019 17:00:00 20,8 -3,7 21,8 6,7 6,3 16 9 29 16 SSW - 60 0,0
16.03.2019 16:00:00 20,9 -3,6 24,4 6,6 6,3 16 9 26 14 SSW - 60 0,0
16.03.2019 15:00:00 20,2 0,1 25,2 6,5 6,3 14 8 25 13 SSW - 60 0,0
16.03.2019 14:00:00 18,5 -0,4 25,8 6,5 6,3 10 5 18 10 SSW - 60 0,0
16.03.2019 13:00:00 16,3 1,9 24,2 6,5 6,3 8 4 15 8 S - 60 0,0
16.03.2019 12:00:00 13,5 1,5 19,4 6,5 6,3 5 3 14 8 SW - 60 0,0
16.03.2019 11:00:00 11,0 1,5 18,9 6,6 6,3 4 2 13 7 ESE - 60 0,0
16.03.2019 10:00:00 8,5 1,4 10,2 6,7 6,3 3 2 10 5 SSE - 60 0,0
16.03.2019 09:00:00 4,4 0,9 2,4 6,7 6,3 2 1 12 7 SSW - 35 0,0
16.03.2019 08:00:00 2,0 -0,4 -1,4 6,8 6,3 9 5 18 10 ENE - 2 0,0
16.03.2019 07:00:00 1,1 -0,7 -1,7 6,8 6,3 3 2 5 3 NE - 0 0,0
16.03.2019 06:00:00 1,9 -0,7 -0,7 6,9 6,3 0 0 11 6 N - 0 0,0
16.03.2019 05:00:00 1,9 -0,2 0,1 6,9 6,2 4 2 19 10 E - 0 0,0
16.03.2019 04:00:00 2,7 0,1 -0,4 6,9 6,3 5 3 11 6 N - 0 0,0
16.03.2019 03:00:00 3,1 0,7 -0,4 7,0 6,3 5 3 7 4 NNE - 0 0,0
16.03.2019 02:00:00 3,1 1,0 0,1 7,0 6,3 4 2 6 3 NE - 0 0,0
16.03.2019 01:00:00 4,0 1,4 1,2 6,9 6,2 0 0 6 3 N - 0 0,0
16.03.2019 00:00:00 4,3 1,5 1,7 6,9 6,3 4 2 8 4 ENE - 0 0,0
15.03.2019 23:00:00 4,8 1,6 1,8 6,9 6,2 3 2 7 4 SW - 0 0,0
15.03.2019 22:00:00 6,0 1,9 2,3 6,9 6,3 3 2 10 6 N - 0 0,0
15.03.2019 21:00:00 6,7 2,0 2,9 6,8 6,3 4 2 7 4 N - 0 0,0
15.03.2019 20:00:00 8,7 2,5 5,4 6,7 6,2 2 1 12 6 WNW - 0 0,0
15.03.2019 19:00:00 10,4 2,5 8,8 6,6 6,3 6 4 27 14 WSW - 17 0,0
15.03.2019 18:00:00 12,4 2,3 11,8 6,4 6,3 14 8 40 22 SSW - 60 0,0
15.03.2019 17:00:00 14,7 2,9 16,6 6,3 6,2 20 11 42 23 SW - 57 0,0
15.03.2019 16:00:00 15,7 2,8 15,7 6,2 6,3 22 12 42 23 SW - 33 0,0
15.03.2019 15:00:00 14,5 2,4 15,6 6,1 6,3 18 10 36 20 SW - 34 0,0
15.03.2019 14:00:00 16,1 3,8 22,7 6,1 6,2 15 8 26 14 SW - 60 0,0
15.03.2019 13:00:00 15,0 4,7 21,9 6,1 6,3 13 7 22 12 S - 60 0,0
15.03.2019 12:00:00 13,5 4,1 22,7 6,1 6,2 8 5 19 11 ESE - 60 0,0
15.03.2019 11:00:00 11,1 4,5 16,4 6,1 6,2 10 6 16 9 NNE - 60 0,0
15.03.2019 10:00:00 7,1 4,1 8,0 6,2 6,2 9 5 21 11 ENE - 60 0,0
15.03.2019 09:00:00 3,3 2,0 0,3 6,2 6,2 10 5 16 8 ENE - 58 0,0
15.03.2019 08:00:00 1,2 0,3 -1,5 6,2 6,2 5 3 13 7 NNE - 2 0,0
15.03.2019 07:00:00 0,7 0,3 -2,5 6,3 6,2 5 3 10 6 N - 0 0,0
15.03.2019 06:00:00 0,5 0,2 -1,9 6,3 6,2 4 2 9 5 E - 0 0,0
15.03.2019 05:00:00 0,7 0,4 -1,5 6,3 6,2 2 1 6 3 NNW - 0 0,0
15.03.2019 04:00:00 1,7 1,3 -0,4 6,3 6,2 3 2 6 3 SW - 0 0,0
15.03.2019 03:00:00 2,0 1,3 0,7 6,3 6,2 0 0 22 12 N 20 0 0,0
15.03.2019 02:00:00 2,7 1,5 1,3 6,3 6,2 14 8 22 12 N 20 0 0,0
15.03.2019 01:00:00 2,6 1,9 2,0 6,4 6,2 8 4 13 7 NNE 20 0 0,0
15.03.2019 00:00:00 2,7 2,1 2,1 6,3 6,2 5 3 11 6 NNE 15 0 0,0
14.03.2019 23:00:00 2,7 2,1 2,3 6,3 6,2 3 1 7 4 W 19 0 0,4
14.03.2019 22:00:00 3,0 2,0 2,5 6,2 6,2 5 3 8 4 SSW 14 0 0,8
14.03.2019 21:00:00 3,2 2,2 2,6 6,2 6,2 5 3 16 9 SSW 11 0 1,2
14.03.2019 20:00:00 3,5 1,9 2,8 6,1 6,2 9 5 26 14 S 15 0 1,4
14.03.2019 19:00:00 4,5 1,9 3,3 6,1 6,2 10 5 26 14 S 19 0 0,4
14.03.2019 18:00:00 5,9 0,2 5,6 6,0 6,2 12 7 36 19 SSW 20 0 0,0
14.03.2019 17:00:00 7,0 -1,7 7,9 5,9 6,2 18 10 48 26 SSW 20 18 0,0
14.03.2019 16:00:00 8,6 -3,0 11,0 5,8 6,2 27 15 53 29 SSW 20 57 0,0
14.03.2019 15:00:00 9,9 -2,8 14,2 5,8 6,2 27 14 49 26 SSW 20 60 0,0
14.03.2019 14:00:00 10,6 -3,2 15,8 5,8 6,2 25 14 46 25 SW 20 58 0,0
14.03.2019 13:00:00 10,8 -3,7 17,7 5,8 6,2 7 4 22 12 S 20 60 0,0
14.03.2019 12:00:00 9,4 -5,3 16,5 5,8 6,2 8 4 21 11 S 20 60 0,0
14.03.2019 11:00:00 7,8 -5,0 15,3 5,8 6,2 8 5 17 9 SSW 20 60 0,0
14.03.2019 10:00:00 5,6 -4,8 10,7 5,9 6,2 4 2 12 7 ESE 20 60 0,0
14.03.2019 09:00:00 1,3 -4,6 3,3 6,0 6,2 9 5 21 11 ENE 20 60 0,0
14.03.2019 08:00:00 -1,1 -5,9 -4,9 6,0 6,2 7 4 13 7 ENE 20 25 0,0
14.03.2019 07:00:00 -2,3 -6,3 -4,7 6,2 6,2 8 4 18 10 N 20 0 0,0
14.03.2019 06:00:00 -2,1 -6,3 -4,0 6,2 6,2 9 5 19 10 NNE 20 0 0,0
14.03.2019 05:00:00 -2,0 -6,0 -4,4 6,2 6,2 10 5 17 9 NE 20 0 0,0
14.03.2019 04:00:00 -2,3 -6,0 -4,8 6,3 6,2 5 3 13 7 NNE 20 0 0,0
14.03.2019 03:00:00 -2,2 -6,0 -5,3 6,4 6,2 4 2 8 4 E 20 0 0,0
14.03.2019 02:00:00 -1,3 -5,7 -4,9 6,4 6,2 3 2 9 5 W 20 0 0,0
14.03.2019 01:00:00 -1,5 -5,4 -5,3 6,4 6,1 5 3 5 3 NNW 20 0 0,0
14.03.2019 00:00:00 -1,1 -5,3 -4,4 6,5 6,2 3 1 8 4 NNW 20 0 0,0
13.03.2019 23:00:00 -0,2 -5,0 -3,9 6,4 6,1 4 2 9 5 NNW 20 0 0,0
13.03.2019 22:00:00 0,4 -4,8 -3,1 6,4 6,2 4 2 9 5 N 20 0 0,0
13.03.2019 21:00:00 1,0 -5,5 -2,4 6,4 6,2 5 3 11 6 N 20 0 0,0
13.03.2019 20:00:00 2,8 -6,1 -0,3 6,3 6,2 4 2 9 5 S 20 0 0,0
13.03.2019 19:00:00 3,8 -5,7 2,3 6,2 6,1 5 3 25 14 S 20 7 0,0
13.03.2019 18:00:00 5,4 -4,5 4,5 6,1 6,1 21 11 55 30 SW 20 60 0,0
13.03.2019 17:00:00 8,7 -8,4 10,7 6,0 6,1 21 11 54 29 WSW 20 60 0,0
13.03.2019 16:00:00 10,1 -7,6 14,6 6,0 6,1 18 10 50 27 SSW 19 60 0,0
13.03.2019 15:00:00 10,1 -8,6 15,3 5,9 6,2 24 13 75 41 SSW 20 60 0,0
13.03.2019 14:00:00 10,6 -8,1 14,6 5,9 6,2 18 10 36 20 SSW 20 57 0,0
13.03.2019 13:00:00 9,2 -5,9 10,3 5,9 6,1 18 10 39 21 SSW 20 41 0,0
13.03.2019 12:00:00 9,2 -4,8 16,2 5,9 6,1 12 7 29 16 SW 20 60 0,0
13.03.2019 11:00:00 7,1 -3,2 6,3 5,9 6,1 10 5 25 14 SSW 20 58 0,0
13.03.2019 10:00:00 4,7 -2,4 4,0 5,9 6,1 9 5 25 14 SW 20 1 0,0
13.03.2019 09:00:00 3,3 -1,5 1,3 6,0 6,2 5 3 14 7 SSE 20 2 0,0

tt = temperature
td = dewpoint
tt 5cm = temperature 5cm
tt -20cm = temperature -20cm
tt -100cm = temperature -100cm
ff = wind speed
fx = gusts
dd = wind direction
vv = visibility
sd = sunshine duration
rr = precipitation

Next stations